Nearby METARS Reports

 

LFML - Marseille/Marign, France
Distance from station: O 47km
Mise à jour: 18/07/2018 20:00
clair
clair
 Wind from SO
Vent: SO 9 km/h
Température: 29°C
Point de rosée: 12°C
Humidité: 35%
Baromètre: 1013 hPa
Résumé: clair
Visibility: greater than 10 km
2018/07/18 18:00 LFML 181800Z AUTO 22005KT 180V260 CAVOK 29/12 Q1013 NOSIG
LFMC - Le Luc/Le Cannet, France
Distance from station: ESE 48km
Mise à jour: 18/07/2018 19:00
peu nuageux
peu nuageux
 Wind from S
Vent: S 7 km/h
Température: 31°C
Heat Index: 33°C
Point de rosée: 19°C
Humidité: 49%
Baromètre: 1012 hPa
Clouds: peu nuageux
Visibility: 10 km
Cloud details: peu nuageux 1707 m
2018/07/18 17:00 LFMC 181700Z 19004KT 130V250 9999 FEW056 31/19 Q1012
LFTH - Hyeres/Le Palyve, France
Distance from station: SSE 53km
Mise à jour: 18/07/2018 20:00
clair
clair
 Wind from SSO
Vent: SSO 15 km/h
Température: 27°C
Heat Index: 29°C
Point de rosée: 20°C
Humidité: 66%
Baromètre: 1013 hPa
Résumé: clair
Visibility: greater than 10 km
2018/07/18 18:00 LFTH 181800Z AUTO 21008KT CAVOK 27/20 Q1013 NOSIG